Terminal Aerodrome Forecast
Issued by NWS

Home | Current Version | Previous Version | Text Only | Print | Product List | Glossary On
Versions: 1 2 3 4 5 6 7 8 9 10 11 12 13 14 15 16 17 18 19 20
000
FTUS45 KRIW 271725
TAFPNA
TAF
KPNA 271725Z 2718/2818 30016G25KT 3SM -SHSN OVC015
     FM272300 31014KT P6SM VCSH SCT020 BKN035
     FM280800 32008KT 4SM -SHSN SCT012 BKN020
     FM281300 35011KT P6SM VCSH SCT018 BKN030
      AMD LTD TO CLD VIS AND WIND=

USA.gov is the U.S. government's official web portal to all federal, state and local government web resources and services.